In Rescue
 
Open Full Screen Window  High Contrast Mode
Wind Gusting 00 knots
04
March 31, 2020 2:30 PM EDT
Weather Information
Wind Direction
  080 °
Wind Speed
  04 kt (5 mph)
Wind Gust
  00 kt (0 mph)
Altimeter
29.90 in
Visibility
10 SM
Temperature
06° C
43° F
Dewpoint
01° C
34° F
Humidity
71%
1hr Rain Fall
00.00 in.
24hr Rain Fall
00.09 in.
Sky Condition
Overcast @ 2,000 ft
MVFR

METAR KPOV 311830Z AUTO 08004KT 10SM OVC020 06/01 A2990 RMK AO2 T00550013 PWINO

FAA Disclaimer: The data displayed is for advisory purposes only and is not to be used for flight planning or operations.